<?xml version="1.0" encoding="UTF-8" standalone="no" ?>
<gpx xmlns="http://www.topografix.com/GPX/1/1" xmlns:xsi="http://www.w3.org/2001/XMLSchema-instance" xsi:schemaLocation="http://www.topografix.com/GPX/1/1 http://www.topografix.com/GPX/1/1/gpx.xsd" version="1.1" creator="VisuGPX - https://www.visugpx.com">
  <metadata>
    <name>Combe de Tardevant (Aravis)</name>
    <desc><![CDATA[Départ des Confins (La Clusaz)
Photos et commentaires sur : [url]www.photosrandos.fr[/url]]]></desc>
  </metadata>
  <trk>
    <name><![CDATA[Combe de Tardevant (Aravis)_1]]></name>
    <trkseg>
      <trkpt lat="45.92303" lon="6.48387">
        <ele>1499.687</ele>
        <time>2009-03-04T08:01:18Z</time>
      </trkpt>
      <trkpt lat="45.92296" lon="6.48398">
        <ele>1482.158</ele>
        <time>2009-03-04T08:01:32Z</time>
      </trkpt>
      <trkpt lat="45.92279" lon="6.48399">
        <ele>1489.485</ele>
        <time>2009-03-04T08:07:35Z</time>
      </trkpt>
      <trkpt lat="45.92263" lon="6.4841">
        <ele>1495.264</ele>
        <time>2009-03-04T08:07:56Z</time>
      </trkpt>
      <trkpt lat="45.9225" lon="6.48428">
        <ele>1497.464</ele>
        <time>2009-03-04T08:08:20Z</time>
      </trkpt>
      <trkpt lat="45.92234" lon="6.48442">
        <ele>1497.533</ele>
        <time>2009-03-04T08:08:40Z</time>
      </trkpt>
      <trkpt lat="45.9222" lon="6.48459">
        <ele>1497.513</ele>
        <time>2009-03-04T08:08:59Z</time>
      </trkpt>
      <trkpt lat="45.92207" lon="6.48476">
        <ele>1499.05</ele>
        <time>2009-03-04T08:09:23Z</time>
      </trkpt>
      <trkpt lat="45.92193" lon="6.48493">
        <ele>1502.75</ele>
        <time>2009-03-04T08:09:48Z</time>
      </trkpt>
      <trkpt lat="45.92183" lon="6.48516">
        <ele>1504.911</ele>
        <time>2009-03-04T08:10:11Z</time>
      </trkpt>
      <trkpt lat="45.92173" lon="6.48538">
        <ele>1504.065</ele>
        <time>2009-03-04T08:10:34Z</time>
      </trkpt>
      <trkpt lat="45.92165" lon="6.48561">
        <ele>1506.974</ele>
        <time>2009-03-04T08:10:56Z</time>
      </trkpt>
      <trkpt lat="45.92154" lon="6.48583">
        <ele>1508.408</ele>
        <time>2009-03-04T08:11:19Z</time>
      </trkpt>
      <trkpt lat="45.92143" lon="6.48604">
        <ele>1510.342</ele>
        <time>2009-03-04T08:11:38Z</time>
      </trkpt>
      <trkpt lat="45.92139" lon="6.48628">
        <ele>1519.093</ele>
        <time>2009-03-04T08:12:00Z</time>
      </trkpt>
      <trkpt lat="45.92133" lon="6.48652">
        <ele>1524.198</ele>
        <time>2009-03-04T08:12:24Z</time>
      </trkpt>
      <trkpt lat="45.92134" lon="6.48677">
        <ele>1519.338</ele>
        <time>2009-03-04T08:12:50Z</time>
      </trkpt>
      <trkpt lat="45.92146" lon="6.48696">
        <ele>1520.874</ele>
        <time>2009-03-04T08:13:11Z</time>
      </trkpt>
      <trkpt lat="45.92155" lon="6.48719">
        <ele>1519.692</ele>
        <time>2009-03-04T08:13:30Z</time>
      </trkpt>
      <trkpt lat="45.92163" lon="6.48743">
        <ele>1518.261</ele>
        <time>2009-03-04T08:13:46Z</time>
      </trkpt>
      <trkpt lat="45.92169" lon="6.48768">
        <ele>1516.268</ele>
        <time>2009-03-04T08:14:04Z</time>
      </trkpt>
      <trkpt lat="45.92174" lon="6.48793">
        <ele>1515.708</ele>
        <time>2009-03-04T08:14:23Z</time>
      </trkpt>
      <trkpt lat="45.92176" lon="6.4882">
        <ele>1512.786</ele>
        <time>2009-03-04T08:14:40Z</time>
      </trkpt>
      <trkpt lat="45.92169" lon="6.48844">
        <ele>1509.44</ele>
        <time>2009-03-04T08:14:52Z</time>
      </trkpt>
      <trkpt lat="45.92172" lon="6.48872">
        <ele>1507.974</ele>
        <time>2009-03-04T08:15:04Z</time>
      </trkpt>
      <trkpt lat="45.92181" lon="6.48894">
        <ele>1510.263</ele>
        <time>2009-03-04T08:15:28Z</time>
      </trkpt>
      <trkpt lat="45.92193" lon="6.48913">
        <ele>1513.384</ele>
        <time>2009-03-04T08:15:50Z</time>
      </trkpt>
      <trkpt lat="45.92206" lon="6.48933">
        <ele>1513.113</ele>
        <time>2009-03-04T08:16:12Z</time>
      </trkpt>
      <trkpt lat="45.92218" lon="6.48952">
        <ele>1514.256</ele>
        <time>2009-03-04T08:16:36Z</time>
      </trkpt>
      <trkpt lat="45.92229" lon="6.48974">
        <ele>1514.292</ele>
        <time>2009-03-04T08:17:02Z</time>
      </trkpt>
      <trkpt lat="45.92242" lon="6.48992">
        <ele>1516.692</ele>
        <time>2009-03-04T08:17:26Z</time>
      </trkpt>
      <trkpt lat="45.92256" lon="6.49009">
        <ele>1520.759</ele>
        <time>2009-03-04T08:17:46Z</time>
      </trkpt>
      <trkpt lat="45.92269" lon="6.49028">
        <ele>1520.567</ele>
        <time>2009-03-04T08:18:13Z</time>
      </trkpt>
      <trkpt lat="45.92283" lon="6.49046">
        <ele>1524.585</ele>
        <time>2009-03-04T08:18:37Z</time>
      </trkpt>
      <trkpt lat="45.92296" lon="6.49063">
        <ele>1524.178</ele>
        <time>2009-03-04T08:19:07Z</time>
      </trkpt>
      <trkpt lat="45.92314" lon="6.49072">
        <ele>1525.803</ele>
        <time>2009-03-04T08:19:30Z</time>
      </trkpt>
      <trkpt lat="45.92332" lon="6.49078">
        <ele>1527.696</ele>
        <time>2009-03-04T08:19:59Z</time>
      </trkpt>
      <trkpt lat="45.92346" lon="6.49095">
        <ele>1530.95</ele>
        <time>2009-03-04T08:20:25Z</time>
      </trkpt>
      <trkpt lat="45.92361" lon="6.4911">
        <ele>1533.692</ele>
        <time>2009-03-04T08:20:50Z</time>
      </trkpt>
      <trkpt lat="45.92377" lon="6.49121">
        <ele>1538.225</ele>
        <time>2009-03-04T08:21:16Z</time>
      </trkpt>
      <trkpt lat="45.92395" lon="6.4912">
        <ele>1537.855</ele>
        <time>2009-03-04T08:21:49Z</time>
      </trkpt>
      <trkpt lat="45.92414" lon="6.49117">
        <ele>1539.866</ele>
        <time>2009-03-04T08:22:21Z</time>
      </trkpt>
      <trkpt lat="45.92432" lon="6.49115">
        <ele>1544.663</ele>
        <time>2009-03-04T08:22:46Z</time>
      </trkpt>
      <trkpt lat="45.92449" lon="6.49126">
        <ele>1550.046</ele>
        <time>2009-03-04T08:23:14Z</time>
      </trkpt>
      <trkpt lat="45.9246" lon="6.49146">
        <ele>1555.348</ele>
        <time>2009-03-04T08:23:38Z</time>
      </trkpt>
      <trkpt lat="45.92472" lon="6.49165">
        <ele>1556.092</ele>
        <time>2009-03-04T08:24:11Z</time>
      </trkpt>
      <trkpt lat="45.92486" lon="6.49181">
        <ele>1554.348</ele>
        <time>2009-03-04T08:24:25Z</time>
      </trkpt>
      <trkpt lat="45.92501" lon="6.49198">
        <ele>1552.972</ele>
        <time>2009-03-04T08:24:37Z</time>
      </trkpt>
      <trkpt lat="45.92518" lon="6.49205">
        <ele>1550.101</ele>
        <time>2009-03-04T08:24:59Z</time>
      </trkpt>
      <trkpt lat="45.92533" lon="6.49218">
        <ele>1546.567</ele>
        <time>2009-03-04T08:25:22Z</time>
      </trkpt>
      <trkpt lat="45.92551" lon="6.49224">
        <ele>1547.084</ele>
        <time>2009-03-04T08:26:00Z</time>
      </trkpt>
      <trkpt lat="45.92569" lon="6.49224">
        <ele>1547.08</ele>
        <time>2009-03-04T08:26:30Z</time>
      </trkpt>
      <trkpt lat="45.92589" lon="6.49226">
        <ele>1545.431</ele>
        <time>2009-03-04T08:28:24Z</time>
      </trkpt>
      <trkpt lat="45.92607" lon="6.49232">
        <ele>1546.014</ele>
        <time>2009-03-04T08:28:34Z</time>
      </trkpt>
      <trkpt lat="45.92623" lon="6.49244">
        <ele>1545.476</ele>
        <time>2009-03-04T08:28:57Z</time>
      </trkpt>
      <trkpt lat="45.9264" lon="6.49256">
        <ele>1542.289</ele>
        <time>2009-03-04T08:29:07Z</time>
      </trkpt>
      <trkpt lat="45.92657" lon="6.49267">
        <ele>1541.27</ele>
        <time>2009-03-04T08:29:21Z</time>
      </trkpt>
      <trkpt lat="45.92674" lon="6.49277">
        <ele>1537.978</ele>
        <time>2009-03-04T08:29:36Z</time>
      </trkpt>
      <trkpt lat="45.9269" lon="6.49289">
        <ele>1540.391</ele>
        <time>2009-03-04T08:29:54Z</time>
      </trkpt>
      <trkpt lat="45.92702" lon="6.49309">
        <ele>1544.322</ele>
        <time>2009-03-04T08:30:15Z</time>
      </trkpt>
      <trkpt lat="45.92707" lon="6.49335">
        <ele>1543.322</ele>
        <time>2009-03-04T08:30:40Z</time>
      </trkpt>
      <trkpt lat="45.92713" lon="6.49361">
        <ele>1544.894</ele>
        <time>2009-03-04T08:31:00Z</time>
      </trkpt>
      <trkpt lat="45.92721" lon="6.49383">
        <ele>1547.359</ele>
        <time>2009-03-04T08:31:24Z</time>
      </trkpt>
      <trkpt lat="45.92725" lon="6.49409">
        <ele>1549.77</ele>
        <time>2009-03-04T08:31:51Z</time>
      </trkpt>
      <trkpt lat="45.92722" lon="6.49434">
        <ele>1549.089</ele>
        <time>2009-03-04T08:32:18Z</time>
      </trkpt>
      <trkpt lat="45.92708" lon="6.49451">
        <ele>1550.642</ele>
        <time>2009-03-04T08:32:49Z</time>
      </trkpt>
      <trkpt lat="45.9269" lon="6.49452">
        <ele>1549.762</ele>
        <time>2009-03-04T08:32:59Z</time>
      </trkpt>
      <trkpt lat="45.92673" lon="6.49465">
        <ele>1553.358</ele>
        <time>2009-03-04T08:33:31Z</time>
      </trkpt>
      <trkpt lat="45.92661" lon="6.49486">
        <ele>1559.693</ele>
        <time>2009-03-04T08:33:56Z</time>
      </trkpt>
      <trkpt lat="45.92651" lon="6.49507">
        <ele>1560.016</ele>
        <time>2009-03-04T08:34:26Z</time>
      </trkpt>
      <trkpt lat="45.92644" lon="6.4953">
        <ele>1556.646</ele>
        <time>2009-03-04T08:34:52Z</time>
      </trkpt>
      <trkpt lat="45.92636" lon="6.49555">
        <ele>1557.156</ele>
        <time>2009-03-04T08:35:20Z</time>
      </trkpt>
      <trkpt lat="45.92634" lon="6.4958">
        <ele>1558.322</ele>
        <time>2009-03-04T08:35:43Z</time>
      </trkpt>
      <trkpt lat="45.92633" lon="6.49606">
        <ele>1559.099</ele>
        <time>2009-03-04T08:36:12Z</time>
      </trkpt>
      <trkpt lat="45.92627" lon="6.49631">
        <ele>1559.913</ele>
        <time>2009-03-04T08:36:37Z</time>
      </trkpt>
      <trkpt lat="45.92623" lon="6.49656">
        <ele>1556.412</ele>
        <time>2009-03-04T08:36:58Z</time>
      </trkpt>
      <trkpt lat="45.92625" lon="6.49683">
        <ele>1556.097</ele>
        <time>2009-03-04T08:37:23Z</time>
      </trkpt>
      <trkpt lat="45.92626" lon="6.49709">
        <ele>1557.516</ele>
        <time>2009-03-04T08:37:48Z</time>
      </trkpt>
      <trkpt lat="45.92635" lon="6.49731">
        <ele>1561.174</ele>
        <time>2009-03-04T08:38:18Z</time>
      </trkpt>
      <trkpt lat="45.92647" lon="6.49751">
        <ele>1563.607</ele>
        <time>2009-03-04T08:38:36Z</time>
      </trkpt>
      <trkpt lat="45.92655" lon="6.49775">
        <ele>1569.488</ele>
        <time>2009-03-04T08:39:25Z</time>
      </trkpt>
      <trkpt lat="45.92663" lon="6.49799">
        <ele>1574.41</ele>
        <time>2009-03-04T08:39:48Z</time>
      </trkpt>
      <trkpt lat="45.92669" lon="6.49824">
        <ele>1578.586</ele>
        <time>2009-03-04T08:40:13Z</time>
      </trkpt>
      <trkpt lat="45.92676" lon="6.49847">
        <ele>1584.473</ele>
        <time>2009-03-04T08:40:46Z</time>
      </trkpt>
      <trkpt lat="45.92674" lon="6.49873">
        <ele>1587.128</ele>
        <time>2009-03-04T08:41:13Z</time>
      </trkpt>
      <trkpt lat="45.92669" lon="6.49899">
        <ele>1588.729</ele>
        <time>2009-03-04T08:41:42Z</time>
      </trkpt>
      <trkpt lat="45.92669" lon="6.49924">
        <ele>1591.891</ele>
        <time>2009-03-04T08:42:19Z</time>
      </trkpt>
      <trkpt lat="45.92667" lon="6.4995">
        <ele>1596.457</ele>
        <time>2009-03-04T08:42:57Z</time>
      </trkpt>
      <trkpt lat="45.92672" lon="6.49974">
        <ele>1601.891</ele>
        <time>2009-03-04T08:43:31Z</time>
      </trkpt>
      <trkpt lat="45.92673" lon="6.49998">
        <ele>1607.204</ele>
        <time>2009-03-04T08:43:56Z</time>
      </trkpt>
      <trkpt lat="45.92673" lon="6.50024">
        <ele>1611.086</ele>
        <time>2009-03-04T08:44:30Z</time>
      </trkpt>
      <trkpt lat="45.92681" lon="6.50047">
        <ele>1614.398</ele>
        <time>2009-03-04T08:45:02Z</time>
      </trkpt>
      <trkpt lat="45.92689" lon="6.50071">
        <ele>1615.579</ele>
        <time>2009-03-04T08:45:38Z</time>
      </trkpt>
      <trkpt lat="45.92695" lon="6.50095">
        <ele>1616.705</ele>
        <time>2009-03-04T08:46:14Z</time>
      </trkpt>
      <trkpt lat="45.92713" lon="6.50103">
        <ele>1620.785</ele>
        <time>2009-03-04T08:46:39Z</time>
      </trkpt>
      <trkpt lat="45.9273" lon="6.50108">
        <ele>1625.538</ele>
        <time>2009-03-04T08:47:07Z</time>
      </trkpt>
      <trkpt lat="45.9274" lon="6.50129">
        <ele>1628.618</ele>
        <time>2009-03-04T08:47:43Z</time>
      </trkpt>
      <trkpt lat="45.92748" lon="6.50152">
        <ele>1631.284</ele>
        <time>2009-03-04T08:48:07Z</time>
      </trkpt>
      <trkpt lat="45.92759" lon="6.50172">
        <ele>1637.505</ele>
        <time>2009-03-04T08:48:35Z</time>
      </trkpt>
      <trkpt lat="45.92771" lon="6.50192">
        <ele>1640.849</ele>
        <time>2009-03-04T08:49:08Z</time>
      </trkpt>
      <trkpt lat="45.92782" lon="6.50213">
        <ele>1643.217</ele>
        <time>2009-03-04T08:49:35Z</time>
      </trkpt>
      <trkpt lat="45.92793" lon="6.50234">
        <ele>1641.86</ele>
        <time>2009-03-04T08:50:09Z</time>
      </trkpt>
      <trkpt lat="45.92803" lon="6.50257">
        <ele>1644.192</ele>
        <time>2009-03-04T08:50:45Z</time>
      </trkpt>
      <trkpt lat="45.92814" lon="6.50277">
        <ele>1649.807</ele>
        <time>2009-03-04T08:51:21Z</time>
      </trkpt>
      <trkpt lat="45.92829" lon="6.5029">
        <ele>1654.886</ele>
        <time>2009-03-04T08:51:50Z</time>
      </trkpt>
      <trkpt lat="45.92846" lon="6.50294">
        <ele>1659.862</ele>
        <time>2009-03-04T08:52:27Z</time>
      </trkpt>
      <trkpt lat="45.92853" lon="6.50315">
        <ele>1668.644</ele>
        <time>2009-03-04T08:53:22Z</time>
      </trkpt>
      <trkpt lat="45.92864" lon="6.50336">
        <ele>1670.886</ele>
        <time>2009-03-04T08:54:14Z</time>
      </trkpt>
      <trkpt lat="45.92857" lon="6.50359">
        <ele>1677.004</ele>
        <time>2009-03-04T08:54:54Z</time>
      </trkpt>
      <trkpt lat="45.9285" lon="6.50381">
        <ele>1684.871</ele>
        <time>2009-03-04T08:55:46Z</time>
      </trkpt>
      <trkpt lat="45.92862" lon="6.50397">
        <ele>1692.052</ele>
        <time>2009-03-04T08:56:30Z</time>
      </trkpt>
      <trkpt lat="45.92864" lon="6.50423">
        <ele>1695.045</ele>
        <time>2009-03-04T08:57:13Z</time>
      </trkpt>
      <trkpt lat="45.92879" lon="6.50436">
        <ele>1701.673</ele>
        <time>2009-03-04T08:57:44Z</time>
      </trkpt>
      <trkpt lat="45.92897" lon="6.50436">
        <ele>1706.257</ele>
        <time>2009-03-04T08:58:13Z</time>
      </trkpt>
      <trkpt lat="45.92892" lon="6.50461">
        <ele>1710.955</ele>
        <time>2009-03-04T08:59:04Z</time>
      </trkpt>
      <trkpt lat="45.929" lon="6.50482">
        <ele>1719.72</ele>
        <time>2009-03-04T08:59:57Z</time>
      </trkpt>
      <trkpt lat="45.92909" lon="6.50504">
        <ele>1726.91</ele>
        <time>2009-03-04T09:00:43Z</time>
      </trkpt>
      <trkpt lat="45.92924" lon="6.5052">
        <ele>1727.056</ele>
        <time>2009-03-04T09:01:09Z</time>
      </trkpt>
      <trkpt lat="45.92936" lon="6.50539">
        <ele>1730.093</ele>
        <time>2009-03-04T09:09:58Z</time>
      </trkpt>
      <trkpt lat="45.92935" lon="6.50565">
        <ele>1730.467</ele>
        <time>2009-03-04T09:10:25Z</time>
      </trkpt>
      <trkpt lat="45.92932" lon="6.50591">
        <ele>1731.301</ele>
        <time>2009-03-04T09:11:05Z</time>
      </trkpt>
      <trkpt lat="45.92934" lon="6.50618">
        <ele>1732.441</ele>
        <time>2009-03-04T09:11:28Z</time>
      </trkpt>
      <trkpt lat="45.92942" lon="6.5064">
        <ele>1736.59</ele>
        <time>2009-03-04T09:12:06Z</time>
      </trkpt>
      <trkpt lat="45.92949" lon="6.50663">
        <ele>1742.762</ele>
        <time>2009-03-04T09:12:38Z</time>
      </trkpt>
      <trkpt lat="45.9296" lon="6.50684">
        <ele>1746.72</ele>
        <time>2009-03-04T09:13:12Z</time>
      </trkpt>
      <trkpt lat="45.9297" lon="6.50704">
        <ele>1752.948</ele>
        <time>2009-03-04T09:13:51Z</time>
      </trkpt>
      <trkpt lat="45.9298" lon="6.50726">
        <ele>1757.274</ele>
        <time>2009-03-04T09:14:28Z</time>
      </trkpt>
      <trkpt lat="45.9299" lon="6.50748">
        <ele>1760.211</ele>
        <time>2009-03-04T09:15:00Z</time>
      </trkpt>
      <trkpt lat="45.93002" lon="6.50767">
        <ele>1762.758</ele>
        <time>2009-03-04T09:15:31Z</time>
      </trkpt>
      <trkpt lat="45.93015" lon="6.50787">
        <ele>1765.762</ele>
        <time>2009-03-04T09:16:03Z</time>
      </trkpt>
      <trkpt lat="45.93027" lon="6.50806">
        <ele>1767.618</ele>
        <time>2009-03-04T09:16:26Z</time>
      </trkpt>
      <trkpt lat="45.93039" lon="6.50826">
        <ele>1769.873</ele>
        <time>2009-03-04T09:16:55Z</time>
      </trkpt>
      <trkpt lat="45.93048" lon="6.50849">
        <ele>1773.683</ele>
        <time>2009-03-04T09:17:36Z</time>
      </trkpt>
      <trkpt lat="45.93058" lon="6.50869">
        <ele>1777.291</ele>
        <time>2009-03-04T09:18:07Z</time>
      </trkpt>
      <trkpt lat="45.93042" lon="6.50868">
        <ele>1786.956</ele>
        <time>2009-03-04T09:19:34Z</time>
      </trkpt>
      <trkpt lat="45.93045" lon="6.50893">
        <ele>1792.651</ele>
        <time>2009-03-04T09:20:26Z</time>
      </trkpt>
      <trkpt lat="45.93051" lon="6.50916">
        <ele>1798.725</ele>
        <time>2009-03-04T09:21:08Z</time>
      </trkpt>
      <trkpt lat="45.93057" lon="6.5094">
        <ele>1803.173</ele>
        <time>2009-03-04T09:21:50Z</time>
      </trkpt>
      <trkpt lat="45.93039" lon="6.50936">
        <ele>1808.242</ele>
        <time>2009-03-04T09:22:39Z</time>
      </trkpt>
      <trkpt lat="45.93034" lon="6.5096">
        <ele>1814.638</ele>
        <time>2009-03-04T09:23:33Z</time>
      </trkpt>
      <trkpt lat="45.93036" lon="6.50985">
        <ele>1822.61</ele>
        <time>2009-03-04T09:24:13Z</time>
      </trkpt>
      <trkpt lat="45.93036" lon="6.5101">
        <ele>1827.182</ele>
        <time>2009-03-04T09:24:48Z</time>
      </trkpt>
      <trkpt lat="45.93031" lon="6.51035">
        <ele>1831.893</ele>
        <time>2009-03-04T09:25:24Z</time>
      </trkpt>
      <trkpt lat="45.93022" lon="6.51056">
        <ele>1837.667</ele>
        <time>2009-03-04T09:25:59Z</time>
      </trkpt>
      <trkpt lat="45.93009" lon="6.51073">
        <ele>1842.013</ele>
        <time>2009-03-04T09:26:31Z</time>
      </trkpt>
      <trkpt lat="45.92998" lon="6.51093">
        <ele>1847.641</ele>
        <time>2009-03-04T09:27:07Z</time>
      </trkpt>
      <trkpt lat="45.9299" lon="6.51115">
        <ele>1850.601</ele>
        <time>2009-03-04T09:33:38Z</time>
      </trkpt>
      <trkpt lat="45.92987" lon="6.5114">
        <ele>1854.651</ele>
        <time>2009-03-04T09:34:08Z</time>
      </trkpt>
      <trkpt lat="45.92985" lon="6.51165">
        <ele>1858.761</ele>
        <time>2009-03-04T09:34:53Z</time>
      </trkpt>
      <trkpt lat="45.92984" lon="6.5119">
        <ele>1865.44</ele>
        <time>2009-03-04T09:35:39Z</time>
      </trkpt>
      <trkpt lat="45.92984" lon="6.51215">
        <ele>1871.3</ele>
        <time>2009-03-04T09:36:25Z</time>
      </trkpt>
      <trkpt lat="45.92983" lon="6.5124">
        <ele>1876.833</ele>
        <time>2009-03-04T09:37:11Z</time>
      </trkpt>
      <trkpt lat="45.92985" lon="6.51265">
        <ele>1882.745</ele>
        <time>2009-03-04T09:37:54Z</time>
      </trkpt>
      <trkpt lat="45.92981" lon="6.51289">
        <ele>1888.505</ele>
        <time>2009-03-04T09:38:34Z</time>
      </trkpt>
      <trkpt lat="45.92973" lon="6.51312">
        <ele>1894.427</ele>
        <time>2009-03-04T09:39:12Z</time>
      </trkpt>
      <trkpt lat="45.92967" lon="6.51336">
        <ele>1897.557</ele>
        <time>2009-03-04T09:39:49Z</time>
      </trkpt>
      <trkpt lat="45.92956" lon="6.51356">
        <ele>1902.433</ele>
        <time>2009-03-04T09:40:24Z</time>
      </trkpt>
      <trkpt lat="45.92942" lon="6.51374">
        <ele>1906.265</ele>
        <time>2009-03-04T09:41:01Z</time>
      </trkpt>
      <trkpt lat="45.92926" lon="6.51384">
        <ele>1910.902</ele>
        <time>2009-03-04T09:41:40Z</time>
      </trkpt>
      <trkpt lat="45.9291" lon="6.51391">
        <ele>1917.737</ele>
        <time>2009-03-04T09:42:21Z</time>
      </trkpt>
      <trkpt lat="45.92892" lon="6.51393">
        <ele>1920.631</ele>
        <time>2009-03-04T09:43:04Z</time>
      </trkpt>
      <trkpt lat="45.92875" lon="6.514">
        <ele>1926.653</ele>
        <time>2009-03-04T09:43:44Z</time>
      </trkpt>
      <trkpt lat="45.92866" lon="6.51422">
        <ele>1929.914</ele>
        <time>2009-03-04T09:44:41Z</time>
      </trkpt>
      <trkpt lat="45.9288" lon="6.51438">
        <ele>1936.275</ele>
        <time>2009-03-04T09:45:19Z</time>
      </trkpt>
      <trkpt lat="45.92895" lon="6.5145">
        <ele>1943.95</ele>
        <time>2009-03-04T09:45:53Z</time>
      </trkpt>
      <trkpt lat="45.9291" lon="6.51463">
        <ele>1948.35</ele>
        <time>2009-03-04T09:46:28Z</time>
      </trkpt>
      <trkpt lat="45.92917" lon="6.51487">
        <ele>1951.63</ele>
        <time>2009-03-04T09:47:02Z</time>
      </trkpt>
      <trkpt lat="45.92908" lon="6.51509">
        <ele>1954.386</ele>
        <time>2009-03-04T09:47:56Z</time>
      </trkpt>
      <trkpt lat="45.92904" lon="6.51532">
        <ele>1961.889</ele>
        <time>2009-03-04T09:48:40Z</time>
      </trkpt>
      <trkpt lat="45.92915" lon="6.51553">
        <ele>1966.814</ele>
        <time>2009-03-04T09:49:19Z</time>
      </trkpt>
      <trkpt lat="45.92904" lon="6.51573">
        <ele>1972.21</ele>
        <time>2009-03-04T09:50:11Z</time>
      </trkpt>
      <trkpt lat="45.92887" lon="6.5158">
        <ele>1976.734</ele>
        <time>2009-03-04T09:50:48Z</time>
      </trkpt>
      <trkpt lat="45.92892" lon="6.51602">
        <ele>1985.956</ele>
        <time>2009-03-04T09:51:37Z</time>
      </trkpt>
      <trkpt lat="45.92902" lon="6.51624">
        <ele>1990.915</ele>
        <time>2009-03-04T09:52:20Z</time>
      </trkpt>
      <trkpt lat="45.92885" lon="6.51629">
        <ele>1996.714</ele>
        <time>2009-03-04T09:53:10Z</time>
      </trkpt>
      <trkpt lat="45.92886" lon="6.51651">
        <ele>2007.011</ele>
        <time>2009-03-04T09:54:13Z</time>
      </trkpt>
      <trkpt lat="45.92869" lon="6.51658">
        <ele>2013.039</ele>
        <time>2009-03-04T09:55:19Z</time>
      </trkpt>
      <trkpt lat="45.9287" lon="6.51681">
        <ele>2022.333</ele>
        <time>2009-03-04T09:56:31Z</time>
      </trkpt>
      <trkpt lat="45.92853" lon="6.51686">
        <ele>2027.16</ele>
        <time>2009-03-04T09:57:38Z</time>
      </trkpt>
      <trkpt lat="45.92854" lon="6.51709">
        <ele>2034.93</ele>
        <time>2009-03-04T09:58:47Z</time>
      </trkpt>
      <trkpt lat="45.92837" lon="6.51711">
        <ele>2040.291</ele>
        <time>2009-03-04T09:59:34Z</time>
      </trkpt>
      <trkpt lat="45.9282" lon="6.51706">
        <ele>2045.468</ele>
        <time>2009-03-04T10:00:11Z</time>
      </trkpt>
      <trkpt lat="45.92802" lon="6.51712">
        <ele>2048.253</ele>
        <time>2009-03-04T10:00:53Z</time>
      </trkpt>
      <trkpt lat="45.92785" lon="6.51719">
        <ele>2049.836</ele>
        <time>2009-03-04T10:01:30Z</time>
      </trkpt>
      <trkpt lat="45.92768" lon="6.51727">
        <ele>2056.489</ele>
        <time>2009-03-04T10:02:11Z</time>
      </trkpt>
      <trkpt lat="45.92781" lon="6.51746">
        <ele>2061.242</ele>
        <time>2009-03-04T10:02:54Z</time>
      </trkpt>
      <trkpt lat="45.92773" lon="6.51767">
        <ele>2068.97</ele>
        <time>2009-03-04T10:04:16Z</time>
      </trkpt>
      <trkpt lat="45.92756" lon="6.51774">
        <ele>2072.331</ele>
        <time>2009-03-04T10:04:55Z</time>
      </trkpt>
      <trkpt lat="45.92771" lon="6.51787">
        <ele>2078.233</ele>
        <time>2009-03-04T10:05:32Z</time>
      </trkpt>
      <trkpt lat="45.92785" lon="6.51804">
        <ele>2080.839</ele>
        <time>2009-03-04T10:06:02Z</time>
      </trkpt>
      <trkpt lat="45.92768" lon="6.51807">
        <ele>2089.943</ele>
        <time>2009-03-04T10:07:07Z</time>
      </trkpt>
      <trkpt lat="45.9275" lon="6.51809">
        <ele>2092.162</ele>
        <time>2009-03-04T10:07:41Z</time>
      </trkpt>
      <trkpt lat="45.92761" lon="6.51831">
        <ele>2094.912</ele>
        <time>2009-03-04T10:08:29Z</time>
      </trkpt>
      <trkpt lat="45.92747" lon="6.51841">
        <ele>2105.911</ele>
        <time>2009-03-04T10:09:50Z</time>
      </trkpt>
      <trkpt lat="45.92729" lon="6.51834">
        <ele>2108.967</ele>
        <time>2009-03-04T10:10:28Z</time>
      </trkpt>
      <trkpt lat="45.92714" lon="6.51821">
        <ele>2115.087</ele>
        <time>2009-03-04T10:11:05Z</time>
      </trkpt>
      <trkpt lat="45.92697" lon="6.51824">
        <ele>2123.147</ele>
        <time>2009-03-04T10:12:02Z</time>
      </trkpt>
      <trkpt lat="45.92682" lon="6.51837">
        <ele>2125.845</ele>
        <time>2009-03-04T10:12:48Z</time>
      </trkpt>
      <trkpt lat="45.92664" lon="6.51837">
        <ele>2132.532</ele>
        <time>2009-03-04T10:13:24Z</time>
      </trkpt>
      <trkpt lat="45.92646" lon="6.51836">
        <ele>2136.503</ele>
        <time>2009-03-04T10:14:00Z</time>
      </trkpt>
      <trkpt lat="45.92628" lon="6.51837">
        <ele>2137.587</ele>
        <time>2009-03-04T10:14:36Z</time>
      </trkpt>
      <trkpt lat="45.9261" lon="6.51842">
        <ele>2141.055</ele>
        <time>2009-03-04T10:15:19Z</time>
      </trkpt>
      <trkpt lat="45.92598" lon="6.51828">
        <ele>2151.682</ele>
        <time>2009-03-04T10:16:16Z</time>
      </trkpt>
      <trkpt lat="45.92591" lon="6.51849">
        <ele>2160.054</ele>
        <time>2009-03-04T10:17:11Z</time>
      </trkpt>
      <trkpt lat="45.9258" lon="6.5183">
        <ele>2165.153</ele>
        <time>2009-03-04T10:17:53Z</time>
      </trkpt>
      <trkpt lat="45.92564" lon="6.51819">
        <ele>2169.912</ele>
        <time>2009-03-04T10:18:27Z</time>
      </trkpt>
      <trkpt lat="45.92553" lon="6.51838">
        <ele>2175.881</ele>
        <time>2009-03-04T10:19:08Z</time>
      </trkpt>
      <trkpt lat="45.9255" lon="6.51861">
        <ele>2183.705</ele>
        <time>2009-03-04T10:19:59Z</time>
      </trkpt>
      <trkpt lat="45.92534" lon="6.51852">
        <ele>2185.637</ele>
        <time>2009-03-04T10:20:42Z</time>
      </trkpt>
      <trkpt lat="45.92517" lon="6.5185">
        <ele>2193.039</ele>
        <time>2009-03-04T10:21:22Z</time>
      </trkpt>
      <trkpt lat="45.92505" lon="6.5187">
        <ele>2197.091</ele>
        <time>2009-03-04T10:22:06Z</time>
      </trkpt>
      <trkpt lat="45.92498" lon="6.51893">
        <ele>2203.029</ele>
        <time>2009-03-04T10:22:36Z</time>
      </trkpt>
      <trkpt lat="45.92492" lon="6.51917">
        <ele>2207.396</ele>
        <time>2009-03-04T10:23:12Z</time>
      </trkpt>
      <trkpt lat="45.92487" lon="6.51943">
        <ele>2211.548</ele>
        <time>2009-03-04T10:23:51Z</time>
      </trkpt>
      <trkpt lat="45.92481" lon="6.51964">
        <ele>2221.059</ele>
        <time>2009-03-04T10:24:51Z</time>
      </trkpt>
      <trkpt lat="45.92473" lon="6.51983">
        <ele>2231.219</ele>
        <time>2009-03-04T10:25:48Z</time>
      </trkpt>
      <trkpt lat="45.92456" lon="6.5199">
        <ele>2236.329</ele>
        <time>2009-03-04T10:28:12Z</time>
      </trkpt>
      <trkpt lat="45.92437" lon="6.51996">
        <ele>2238.235</ele>
        <time>2009-03-04T10:30:16Z</time>
      </trkpt>
      <trkpt lat="45.9242" lon="6.52009">
        <ele>2239.712</ele>
        <time>2009-03-04T10:37:04Z</time>
      </trkpt>
      <trkpt lat="45.92409" lon="6.5203">
        <ele>2238.209</ele>
        <time>2009-03-04T10:37:25Z</time>
      </trkpt>
      <trkpt lat="45.92397" lon="6.52049">
        <ele>2238.204</ele>
        <time>2009-03-04T10:37:54Z</time>
      </trkpt>
      <trkpt lat="45.92383" lon="6.52064">
        <ele>2240.709</ele>
        <time>2009-03-04T10:38:24Z</time>
      </trkpt>
      <trkpt lat="45.92367" lon="6.52078">
        <ele>2244.045</ele>
        <time>2009-03-04T10:38:49Z</time>
      </trkpt>
      <trkpt lat="45.92351" lon="6.52088">
        <ele>2247.205</ele>
        <time>2009-03-04T10:39:13Z</time>
      </trkpt>
      <trkpt lat="45.92333" lon="6.5209">
        <ele>2248.164</ele>
        <time>2009-03-04T10:39:49Z</time>
      </trkpt>
      <trkpt lat="45.92316" lon="6.5209">
        <ele>2254.684</ele>
        <time>2009-03-04T10:40:31Z</time>
      </trkpt>
      <trkpt lat="45.92317" lon="6.52116">
        <ele>2259.861</ele>
        <time>2009-03-04T10:41:42Z</time>
      </trkpt>
      <trkpt lat="45.92325" lon="6.52138">
        <ele>2264.641</ele>
        <time>2009-03-04T10:42:18Z</time>
      </trkpt>
      <trkpt lat="45.92331" lon="6.52162">
        <ele>2269.547</ele>
        <time>2009-03-04T10:42:55Z</time>
      </trkpt>
      <trkpt lat="45.92334" lon="6.52186">
        <ele>2277.005</ele>
        <time>2009-03-04T10:43:38Z</time>
      </trkpt>
      <trkpt lat="45.92336" lon="6.52211">
        <ele>2281.235</ele>
        <time>2009-03-04T10:44:23Z</time>
      </trkpt>
      <trkpt lat="45.92338" lon="6.52235">
        <ele>2289.365</ele>
        <time>2009-03-04T10:45:07Z</time>
      </trkpt>
      <trkpt lat="45.92342" lon="6.52259">
        <ele>2296.667</ele>
        <time>2009-03-04T10:46:08Z</time>
      </trkpt>
      <trkpt lat="45.92345" lon="6.52284">
        <ele>2302.189</ele>
        <time>2009-03-04T10:47:06Z</time>
      </trkpt>
      <trkpt lat="45.92339" lon="6.52309">
        <ele>2304.057</ele>
        <time>2009-03-04T10:48:05Z</time>
      </trkpt>
      <trkpt lat="45.92336" lon="6.52333">
        <ele>2309.286</ele>
        <time>2009-03-04T10:49:17Z</time>
      </trkpt>
      <trkpt lat="45.92322" lon="6.52341">
        <ele>2321.297</ele>
        <time>2009-03-04T10:52:43Z</time>
      </trkpt>
      <trkpt lat="45.92322" lon="6.52366">
        <ele>2324.396</ele>
        <time>2009-03-04T10:53:48Z</time>
      </trkpt>
      <trkpt lat="45.92322" lon="6.52393">
        <ele>2325.157</ele>
        <time>2009-03-04T10:54:33Z</time>
      </trkpt>
      <trkpt lat="45.92318" lon="6.52417">
        <ele>2332.107</ele>
        <time>2009-03-04T10:55:42Z</time>
      </trkpt>
      <trkpt lat="45.92324" lon="6.52442">
        <ele>2333.3</ele>
        <time>2009-03-04T10:56:25Z</time>
      </trkpt>
      <trkpt lat="45.92324" lon="6.52468">
        <ele>2339.352</ele>
        <time>2009-03-04T10:57:04Z</time>
      </trkpt>
      <trkpt lat="45.92321" lon="6.52494">
        <ele>2342.626</ele>
        <time>2009-03-04T10:57:25Z</time>
      </trkpt>
      <trkpt lat="45.92322" lon="6.52519">
        <ele>2346.282</ele>
        <time>2009-03-04T10:57:54Z</time>
      </trkpt>
      <trkpt lat="45.92323" lon="6.52545">
        <ele>2350.046</ele>
        <time>2009-03-04T10:58:32Z</time>
      </trkpt>
      <trkpt lat="45.92333" lon="6.5256">
        <ele>2362.385</ele>
        <time>2009-03-04T10:59:43Z</time>
      </trkpt>
      <trkpt lat="45.92329" lon="6.52583">
        <ele>2369.979</ele>
        <time>2009-03-04T11:00:19Z</time>
      </trkpt>
      <trkpt lat="45.92322" lon="6.52608">
        <ele>2373.197</ele>
        <time>2009-03-04T11:00:56Z</time>
      </trkpt>
      <trkpt lat="45.92327" lon="6.52631">
        <ele>2381.13</ele>
        <time>2009-03-04T11:01:35Z</time>
      </trkpt>
      <trkpt lat="45.92322" lon="6.52656">
        <ele>2382.652</ele>
        <time>2009-03-04T11:02:10Z</time>
      </trkpt>
      <trkpt lat="45.9231" lon="6.52673">
        <ele>2388.277</ele>
        <time>2009-03-04T11:02:42Z</time>
      </trkpt>
      <trkpt lat="45.92303" lon="6.52698">
        <ele>2392.373</ele>
        <time>2009-03-04T11:03:27Z</time>
      </trkpt>
      <trkpt lat="45.92294" lon="6.52719">
        <ele>2398.479</ele>
        <time>2009-03-04T11:04:10Z</time>
      </trkpt>
      <trkpt lat="45.92291" lon="6.52743">
        <ele>2405.394</ele>
        <time>2009-03-04T11:05:06Z</time>
      </trkpt>
      <trkpt lat="45.92306" lon="6.52756">
        <ele>2408.867</ele>
        <time>2009-03-04T11:05:43Z</time>
      </trkpt>
      <trkpt lat="45.92297" lon="6.52777">
        <ele>2415.85</ele>
        <time>2009-03-04T11:06:30Z</time>
      </trkpt>
      <trkpt lat="45.92292" lon="6.528">
        <ele>2424.113</ele>
        <time>2009-03-04T11:07:42Z</time>
      </trkpt>
      <trkpt lat="45.923" lon="6.52821">
        <ele>2431.24</ele>
        <time>2009-03-04T11:08:42Z</time>
      </trkpt>
      <trkpt lat="45.92312" lon="6.52841">
        <ele>2437.119</ele>
        <time>2009-03-04T11:09:36Z</time>
      </trkpt>
      <trkpt lat="45.92309" lon="6.52865">
        <ele>2443.713</ele>
        <time>2009-03-04T11:10:48Z</time>
      </trkpt>
      <trkpt lat="45.92313" lon="6.5289">
        <ele>2448.873</ele>
        <time>2009-03-04T11:11:36Z</time>
      </trkpt>
      <trkpt lat="45.92328" lon="6.52904">
        <ele>2454.593</ele>
        <time>2009-03-04T11:12:08Z</time>
      </trkpt>
      <trkpt lat="45.92341" lon="6.52922">
        <ele>2454.711</ele>
        <time>2009-03-04T11:12:41Z</time>
      </trkpt>
      <trkpt lat="45.92351" lon="6.52942">
        <ele>2462.455</ele>
        <time>2009-03-04T11:13:27Z</time>
      </trkpt>
      <trkpt lat="45.92359" lon="6.52964">
        <ele>2467.697</ele>
        <time>2009-03-04T11:14:02Z</time>
      </trkpt>
      <trkpt lat="45.92372" lon="6.52981">
        <ele>2472.465</ele>
        <time>2009-03-04T11:14:33Z</time>
      </trkpt>
      <trkpt lat="45.92388" lon="6.52994">
        <ele>2476.47</ele>
        <time>2009-03-04T11:15:07Z</time>
      </trkpt>
      <trkpt lat="45.92401" lon="6.53011">
        <ele>2478.496</ele>
        <time>2009-03-04T11:15:39Z</time>
      </trkpt>
      <trkpt lat="45.9241" lon="6.53033">
        <ele>2481.722</ele>
        <time>2009-03-04T11:16:07Z</time>
      </trkpt>
      <trkpt lat="45.9242" lon="6.53054">
        <ele>2487.457</ele>
        <time>2009-03-04T11:16:31Z</time>
      </trkpt>
      <trkpt lat="45.92437" lon="6.53063">
        <ele>2485.872</ele>
        <time>2009-03-04T11:17:01Z</time>
      </trkpt>
      <trkpt lat="45.92456" lon="6.53066">
        <ele>2487.42</ele>
        <time>2009-03-04T11:17:45Z</time>
      </trkpt>
      <trkpt lat="45.92474" lon="6.5306">
        <ele>2490.077</ele>
        <time>2009-03-04T11:18:34Z</time>
      </trkpt>
      <trkpt lat="45.92489" lon="6.53048">
        <ele>2496.305</ele>
        <time>2009-03-04T11:19:02Z</time>
      </trkpt>
      <trkpt lat="45.92502" lon="6.53031">
        <ele>2495.227</ele>
        <time>2009-03-04T11:19:45Z</time>
      </trkpt>
      <trkpt lat="45.92497" lon="6.53006">
        <ele>2487.82</ele>
        <time>2009-03-04T11:39:18Z</time>
      </trkpt>
      <trkpt lat="45.92483" lon="6.52987">
        <ele>2482.711</ele>
        <time>2009-03-04T11:39:29Z</time>
      </trkpt>
      <trkpt lat="45.92469" lon="6.53005">
        <ele>2480.184</ele>
        <time>2009-03-04T11:39:37Z</time>
      </trkpt>
      <trkpt lat="45.92453" lon="6.53014">
        <ele>2477.531</ele>
        <time>2009-03-04T11:39:49Z</time>
      </trkpt>
      <trkpt lat="45.92463" lon="6.5299">
        <ele>2474.469</ele>
        <time>2009-03-04T11:40:30Z</time>
      </trkpt>
      <trkpt lat="45.92467" lon="6.52964">
        <ele>2470.656</ele>
        <time>2009-03-04T11:40:37Z</time>
      </trkpt>
      <trkpt lat="45.92455" lon="6.52947">
        <ele>2460.522</ele>
        <time>2009-03-04T11:40:48Z</time>
      </trkpt>
      <trkpt lat="45.92447" lon="6.52929">
        <ele>2448.396</ele>
        <time>2009-03-04T11:41:00Z</time>
      </trkpt>
      <trkpt lat="45.92431" lon="6.52918">
        <ele>2443.556</ele>
        <time>2009-03-04T11:41:20Z</time>
      </trkpt>
      <trkpt lat="45.92441" lon="6.52896">
        <ele>2440.666</ele>
        <time>2009-03-04T11:41:28Z</time>
      </trkpt>
      <trkpt lat="45.92421" lon="6.52899">
        <ele>2439.237</ele>
        <time>2009-03-04T11:41:37Z</time>
      </trkpt>
      <trkpt lat="45.92402" lon="6.52892">
        <ele>2437.012</ele>
        <time>2009-03-04T11:41:45Z</time>
      </trkpt>
      <trkpt lat="45.92385" lon="6.52879">
        <ele>2434.801</ele>
        <time>2009-03-04T11:41:51Z</time>
      </trkpt>
      <trkpt lat="45.92372" lon="6.5286">
        <ele>2430.079</ele>
        <time>2009-03-04T11:42:03Z</time>
      </trkpt>
      <trkpt lat="45.9236" lon="6.52842">
        <ele>2424.202</ele>
        <time>2009-03-04T11:42:38Z</time>
      </trkpt>
      <trkpt lat="45.92345" lon="6.52828">
        <ele>2419.874</ele>
        <time>2009-03-04T11:43:31Z</time>
      </trkpt>
      <trkpt lat="45.92332" lon="6.52808">
        <ele>2417.172</ele>
        <time>2009-03-04T11:43:38Z</time>
      </trkpt>
      <trkpt lat="45.92319" lon="6.52786">
        <ele>2415.789</ele>
        <time>2009-03-04T11:43:44Z</time>
      </trkpt>
      <trkpt lat="45.92308" lon="6.52766">
        <ele>2414.792</ele>
        <time>2009-03-04T11:44:15Z</time>
      </trkpt>
      <trkpt lat="45.92297" lon="6.52746">
        <ele>2408.002</ele>
        <time>2009-03-04T11:44:27Z</time>
      </trkpt>
      <trkpt lat="45.92289" lon="6.52722">
        <ele>2400.364</ele>
        <time>2009-03-04T11:44:36Z</time>
      </trkpt>
      <trkpt lat="45.92288" lon="6.52699">
        <ele>2391.812</ele>
        <time>2009-03-04T11:44:46Z</time>
      </trkpt>
      <trkpt lat="45.92284" lon="6.52675">
        <ele>2383.207</ele>
        <time>2009-03-04T11:44:56Z</time>
      </trkpt>
      <trkpt lat="45.92279" lon="6.5265">
        <ele>2377.002</ele>
        <time>2009-03-04T11:45:20Z</time>
      </trkpt>
      <trkpt lat="45.92295" lon="6.52638">
        <ele>2372.838</ele>
        <time>2009-03-04T11:45:31Z</time>
      </trkpt>
      <trkpt lat="45.92297" lon="6.52613">
        <ele>2366.731</ele>
        <time>2009-03-04T11:45:42Z</time>
      </trkpt>
      <trkpt lat="45.92297" lon="6.52586">
        <ele>2362.111</ele>
        <time>2009-03-04T11:45:53Z</time>
      </trkpt>
      <trkpt lat="45.92304" lon="6.52561">
        <ele>2358.559</ele>
        <time>2009-03-04T11:46:02Z</time>
      </trkpt>
      <trkpt lat="45.92309" lon="6.52533">
        <ele>2356.553</ele>
        <time>2009-03-04T11:46:08Z</time>
      </trkpt>
      <trkpt lat="45.92314" lon="6.52503">
        <ele>2353.445</ele>
        <time>2009-03-04T11:46:14Z</time>
      </trkpt>
      <trkpt lat="45.92313" lon="6.52475">
        <ele>2351.886</ele>
        <time>2009-03-04T11:46:19Z</time>
      </trkpt>
      <trkpt lat="45.92313" lon="6.52448">
        <ele>2351.171</ele>
        <time>2009-03-04T11:46:41Z</time>
      </trkpt>
      <trkpt lat="45.92318" lon="6.5242">
        <ele>2347.734</ele>
        <time>2009-03-04T11:47:44Z</time>
      </trkpt>
      <trkpt lat="45.92314" lon="6.52392">
        <ele>2343.798</ele>
        <time>2009-03-04T11:47:52Z</time>
      </trkpt>
      <trkpt lat="45.92327" lon="6.52375">
        <ele>2336.175</ele>
        <time>2009-03-04T11:48:08Z</time>
      </trkpt>
      <trkpt lat="45.92319" lon="6.52352">
        <ele>2330.529</ele>
        <time>2009-03-04T11:48:17Z</time>
      </trkpt>
      <trkpt lat="45.92329" lon="6.52335">
        <ele>2319.869</ele>
        <time>2009-03-04T11:48:30Z</time>
      </trkpt>
      <trkpt lat="45.92338" lon="6.52317">
        <ele>2308.665</ele>
        <time>2009-03-04T11:49:04Z</time>
      </trkpt>
      <trkpt lat="45.92353" lon="6.52307">
        <ele>2296.209</ele>
        <time>2009-03-04T11:49:23Z</time>
      </trkpt>
      <trkpt lat="45.92361" lon="6.52286">
        <ele>2287.759</ele>
        <time>2009-03-04T11:49:37Z</time>
      </trkpt>
      <trkpt lat="45.92361" lon="6.5226">
        <ele>2283.447</ele>
        <time>2009-03-04T11:50:04Z</time>
      </trkpt>
      <trkpt lat="45.92362" lon="6.52234">
        <ele>2278.477</ele>
        <time>2009-03-04T11:50:27Z</time>
      </trkpt>
      <trkpt lat="45.92356" lon="6.52207">
        <ele>2274.482</ele>
        <time>2009-03-04T11:50:34Z</time>
      </trkpt>
      <trkpt lat="45.92352" lon="6.5218">
        <ele>2268.206</ele>
        <time>2009-03-04T11:50:41Z</time>
      </trkpt>
      <trkpt lat="45.92349" lon="6.52154">
        <ele>2265.499</ele>
        <time>2009-03-04T11:50:50Z</time>
      </trkpt>
      <trkpt lat="45.9234" lon="6.52133">
        <ele>2263.898</ele>
        <time>2009-03-04T11:50:59Z</time>
      </trkpt>
      <trkpt lat="45.92327" lon="6.52114">
        <ele>2260.265</ele>
        <time>2009-03-04T11:51:09Z</time>
      </trkpt>
      <trkpt lat="45.92315" lon="6.52094">
        <ele>2258</ele>
        <time>2009-03-04T11:51:16Z</time>
      </trkpt>
      <trkpt lat="45.92307" lon="6.5207">
        <ele>2255.33</ele>
        <time>2009-03-04T11:51:24Z</time>
      </trkpt>
      <trkpt lat="45.92306" lon="6.52044">
        <ele>2252.917</ele>
        <time>2009-03-04T11:51:32Z</time>
      </trkpt>
      <trkpt lat="45.92311" lon="6.52014">
        <ele>2251.643</ele>
        <time>2009-03-04T11:51:36Z</time>
      </trkpt>
      <trkpt lat="45.92318" lon="6.51985">
        <ele>2248.979</ele>
        <time>2009-03-04T11:51:40Z</time>
      </trkpt>
      <trkpt lat="45.92328" lon="6.51964">
        <ele>2245.569</ele>
        <time>2009-03-04T11:52:01Z</time>
      </trkpt>
      <trkpt lat="45.92325" lon="6.51939">
        <ele>2240.527</ele>
        <time>2009-03-04T11:53:28Z</time>
      </trkpt>
      <trkpt lat="45.92316" lon="6.51915">
        <ele>2237.707</ele>
        <time>2009-03-04T11:53:36Z</time>
      </trkpt>
      <trkpt lat="45.92323" lon="6.51891">
        <ele>2232.581</ele>
        <time>2009-03-04T11:53:48Z</time>
      </trkpt>
      <trkpt lat="45.92329" lon="6.51863">
        <ele>2228.968</ele>
        <time>2009-03-04T11:53:54Z</time>
      </trkpt>
      <trkpt lat="45.92342" lon="6.51844">
        <ele>2222.389</ele>
        <time>2009-03-04T11:54:11Z</time>
      </trkpt>
      <trkpt lat="45.92347" lon="6.51818">
        <ele>2219.325</ele>
        <time>2009-03-04T11:54:17Z</time>
      </trkpt>
      <trkpt lat="45.92359" lon="6.518">
        <ele>2213.064</ele>
        <time>2009-03-04T11:54:34Z</time>
      </trkpt>
      <trkpt lat="45.92368" lon="6.51778">
        <ele>2205.272</ele>
        <time>2009-03-04T11:54:42Z</time>
      </trkpt>
      <trkpt lat="45.92375" lon="6.51755">
        <ele>2199.841</ele>
        <time>2009-03-04T11:54:59Z</time>
      </trkpt>
      <trkpt lat="45.92389" lon="6.51738">
        <ele>2194.652</ele>
        <time>2009-03-04T11:55:05Z</time>
      </trkpt>
      <trkpt lat="45.92399" lon="6.51718">
        <ele>2186.202</ele>
        <time>2009-03-04T11:58:02Z</time>
      </trkpt>
      <trkpt lat="45.92416" lon="6.51708">
        <ele>2182.947</ele>
        <time>2009-03-04T11:58:08Z</time>
      </trkpt>
      <trkpt lat="45.92427" lon="6.51688">
        <ele>2177.397</ele>
        <time>2009-03-04T11:58:15Z</time>
      </trkpt>
      <trkpt lat="45.9244" lon="6.51662">
        <ele>2170.927</ele>
        <time>2009-03-04T11:58:20Z</time>
      </trkpt>
      <trkpt lat="45.92453" lon="6.51642">
        <ele>2165.291</ele>
        <time>2009-03-04T11:58:25Z</time>
      </trkpt>
      <trkpt lat="45.92461" lon="6.5162">
        <ele>2155.238</ele>
        <time>2009-03-04T11:58:56Z</time>
      </trkpt>
      <trkpt lat="45.92467" lon="6.51595">
        <ele>2152.196</ele>
        <time>2009-03-04T11:59:07Z</time>
      </trkpt>
      <trkpt lat="45.92483" lon="6.51606">
        <ele>2145.747</ele>
        <time>2009-03-04T11:59:25Z</time>
      </trkpt>
      <trkpt lat="45.92498" lon="6.51597">
        <ele>2136.192</ele>
        <time>2009-03-04T11:59:35Z</time>
      </trkpt>
      <trkpt lat="45.92511" lon="6.51584">
        <ele>2125.851</ele>
        <time>2009-03-04T11:59:49Z</time>
      </trkpt>
      <trkpt lat="45.92524" lon="6.51573">
        <ele>2114.531</ele>
        <time>2009-03-04T12:00:03Z</time>
      </trkpt>
      <trkpt lat="45.92538" lon="6.51573">
        <ele>2101.766</ele>
        <time>2009-03-04T12:00:42Z</time>
      </trkpt>
      <trkpt lat="45.92543" lon="6.51548">
        <ele>2099.031</ele>
        <time>2009-03-04T12:00:52Z</time>
      </trkpt>
      <trkpt lat="45.92559" lon="6.5154">
        <ele>2088.74</ele>
        <time>2009-03-04T12:01:03Z</time>
      </trkpt>
      <trkpt lat="45.92573" lon="6.51548">
        <ele>2077.041</ele>
        <time>2009-03-04T12:01:16Z</time>
      </trkpt>
      <trkpt lat="45.92587" lon="6.51541">
        <ele>2064.17</ele>
        <time>2009-03-04T12:01:25Z</time>
      </trkpt>
      <trkpt lat="45.92604" lon="6.51536">
        <ele>2058.649</ele>
        <time>2009-03-04T12:01:33Z</time>
      </trkpt>
      <trkpt lat="45.92617" lon="6.51519">
        <ele>2046.892</ele>
        <time>2009-03-04T12:01:42Z</time>
      </trkpt>
      <trkpt lat="45.92627" lon="6.515">
        <ele>2038.791</ele>
        <time>2009-03-04T12:02:26Z</time>
      </trkpt>
      <trkpt lat="45.92641" lon="6.5148">
        <ele>2034.669</ele>
        <time>2009-03-04T12:02:34Z</time>
      </trkpt>
      <trkpt lat="45.92655" lon="6.51462">
        <ele>2026.037</ele>
        <time>2009-03-04T12:02:44Z</time>
      </trkpt>
      <trkpt lat="45.9265" lon="6.51435">
        <ele>2022.238</ele>
        <time>2009-03-04T12:02:52Z</time>
      </trkpt>
      <trkpt lat="45.9266" lon="6.51413">
        <ele>2017.384</ele>
        <time>2009-03-04T12:03:03Z</time>
      </trkpt>
      <trkpt lat="45.92677" lon="6.51406">
        <ele>2010.239</ele>
        <time>2009-03-04T12:03:53Z</time>
      </trkpt>
      <trkpt lat="45.92698" lon="6.51408">
        <ele>2003.896</ele>
        <time>2009-03-04T12:04:01Z</time>
      </trkpt>
      <trkpt lat="45.92715" lon="6.51394">
        <ele>2001.006</ele>
        <time>2009-03-04T12:04:08Z</time>
      </trkpt>
      <trkpt lat="45.92728" lon="6.51377">
        <ele>1996.082</ele>
        <time>2009-03-04T12:04:14Z</time>
      </trkpt>
      <trkpt lat="45.92744" lon="6.51371">
        <ele>1986.869</ele>
        <time>2009-03-04T12:04:24Z</time>
      </trkpt>
      <trkpt lat="45.92761" lon="6.51389">
        <ele>1982.229</ele>
        <time>2009-03-04T12:04:29Z</time>
      </trkpt>
      <trkpt lat="45.92757" lon="6.51363">
        <ele>1974.173</ele>
        <time>2009-03-04T12:04:41Z</time>
      </trkpt>
      <trkpt lat="45.92749" lon="6.51341">
        <ele>1967.147</ele>
        <time>2009-03-04T12:04:48Z</time>
      </trkpt>
      <trkpt lat="45.92743" lon="6.51317">
        <ele>1958.935</ele>
        <time>2009-03-04T12:04:56Z</time>
      </trkpt>
      <trkpt lat="45.92756" lon="6.51305">
        <ele>1945.774</ele>
        <time>2009-03-04T12:05:04Z</time>
      </trkpt>
      <trkpt lat="45.92773" lon="6.51297">
        <ele>1934.917</ele>
        <time>2009-03-04T12:05:12Z</time>
      </trkpt>
      <trkpt lat="45.92785" lon="6.51282">
        <ele>1923.394</ele>
        <time>2009-03-04T12:05:20Z</time>
      </trkpt>
      <trkpt lat="45.92776" lon="6.5126">
        <ele>1917.75</ele>
        <time>2009-03-04T12:05:27Z</time>
      </trkpt>
      <trkpt lat="45.92782" lon="6.51238">
        <ele>1908.563</ele>
        <time>2009-03-04T12:05:37Z</time>
      </trkpt>
      <trkpt lat="45.92798" lon="6.51228">
        <ele>1899.63</ele>
        <time>2009-03-04T12:05:46Z</time>
      </trkpt>
      <trkpt lat="45.92806" lon="6.5121">
        <ele>1887.095</ele>
        <time>2009-03-04T12:06:31Z</time>
      </trkpt>
      <trkpt lat="45.92823" lon="6.51215">
        <ele>1880.12</ele>
        <time>2009-03-04T12:06:37Z</time>
      </trkpt>
      <trkpt lat="45.92832" lon="6.51191">
        <ele>1874.403</ele>
        <time>2009-03-04T12:06:44Z</time>
      </trkpt>
      <trkpt lat="45.92841" lon="6.51167">
        <ele>1868.119</ele>
        <time>2009-03-04T12:06:50Z</time>
      </trkpt>
      <trkpt lat="45.92858" lon="6.51157">
        <ele>1864.713</ele>
        <time>2009-03-04T12:06:54Z</time>
      </trkpt>
      <trkpt lat="45.92861" lon="6.51129">
        <ele>1860.072</ele>
        <time>2009-03-04T12:06:58Z</time>
      </trkpt>
      <trkpt lat="45.92859" lon="6.51097">
        <ele>1858.268</ele>
        <time>2009-03-04T12:07:02Z</time>
      </trkpt>
      <trkpt lat="45.92857" lon="6.51067">
        <ele>1855.794</ele>
        <time>2009-03-04T12:07:06Z</time>
      </trkpt>
      <trkpt lat="45.92856" lon="6.5104">
        <ele>1853.735</ele>
        <time>2009-03-04T12:07:10Z</time>
      </trkpt>
      <trkpt lat="45.92864" lon="6.51015">
        <ele>1849.855</ele>
        <time>2009-03-04T12:07:14Z</time>
      </trkpt>
      <trkpt lat="45.9288" lon="6.51001">
        <ele>1847.908</ele>
        <time>2009-03-04T12:07:18Z</time>
      </trkpt>
      <trkpt lat="45.92897" lon="6.50991">
        <ele>1844.333</ele>
        <time>2009-03-04T12:07:29Z</time>
      </trkpt>
      <trkpt lat="45.92915" lon="6.50985">
        <ele>1842.348</ele>
        <time>2009-03-04T12:07:35Z</time>
      </trkpt>
      <trkpt lat="45.92928" lon="6.50967">
        <ele>1839.419</ele>
        <time>2009-03-04T12:07:54Z</time>
      </trkpt>
      <trkpt lat="45.92938" lon="6.50952">
        <ele>1851.479</ele>
        <time>2009-03-04T12:35:37Z</time>
      </trkpt>
      <trkpt lat="45.92931" lon="6.5093">
        <ele>1844.476</ele>
        <time>2009-03-04T12:37:19Z</time>
      </trkpt>
      <trkpt lat="45.9293" lon="6.50904">
        <ele>1836.505</ele>
        <time>2009-03-04T12:37:35Z</time>
      </trkpt>
      <trkpt lat="45.92919" lon="6.50884">
        <ele>1830.925</ele>
        <time>2009-03-04T12:37:42Z</time>
      </trkpt>
      <trkpt lat="45.92903" lon="6.50867">
        <ele>1829.177</ele>
        <time>2009-03-04T12:37:48Z</time>
      </trkpt>
      <trkpt lat="45.92899" lon="6.50841">
        <ele>1820.807</ele>
        <time>2009-03-04T12:38:02Z</time>
      </trkpt>
      <trkpt lat="45.92917" lon="6.50844">
        <ele>1813.761</ele>
        <time>2009-03-04T12:38:11Z</time>
      </trkpt>
      <trkpt lat="45.9293" lon="6.50831">
        <ele>1802.54</ele>
        <time>2009-03-04T12:38:22Z</time>
      </trkpt>
      <trkpt lat="45.92942" lon="6.50818">
        <ele>1789.675</ele>
        <time>2009-03-04T12:38:31Z</time>
      </trkpt>
      <trkpt lat="45.92929" lon="6.508">
        <ele>1785.001</ele>
        <time>2009-03-04T12:38:37Z</time>
      </trkpt>
      <trkpt lat="45.92945" lon="6.50789">
        <ele>1775.819</ele>
        <time>2009-03-04T12:38:51Z</time>
      </trkpt>
      <trkpt lat="45.9296" lon="6.5078">
        <ele>1766.14</ele>
        <time>2009-03-04T12:39:03Z</time>
      </trkpt>
      <trkpt lat="45.92951" lon="6.50755">
        <ele>1760.605</ele>
        <time>2009-03-04T12:39:11Z</time>
      </trkpt>
      <trkpt lat="45.92954" lon="6.50731">
        <ele>1751.041</ele>
        <time>2009-03-04T12:39:25Z</time>
      </trkpt>
      <trkpt lat="45.92939" lon="6.50714">
        <ele>1748.99</ele>
        <time>2009-03-04T12:39:32Z</time>
      </trkpt>
      <trkpt lat="45.92933" lon="6.50689">
        <ele>1741.041</ele>
        <time>2009-03-04T12:39:42Z</time>
      </trkpt>
      <trkpt lat="45.92923" lon="6.50665">
        <ele>1738.778</ele>
        <time>2009-03-04T12:39:48Z</time>
      </trkpt>
      <trkpt lat="45.92929" lon="6.50645">
        <ele>1728.777</ele>
        <time>2009-03-04T12:39:59Z</time>
      </trkpt>
      <trkpt lat="45.92921" lon="6.50618">
        <ele>1722.989</ele>
        <time>2009-03-04T12:40:04Z</time>
      </trkpt>
      <trkpt lat="45.9292" lon="6.50589">
        <ele>1721.864</ele>
        <time>2009-03-04T12:40:09Z</time>
      </trkpt>
      <trkpt lat="45.9292" lon="6.50562">
        <ele>1718.584</ele>
        <time>2009-03-04T12:40:15Z</time>
      </trkpt>
      <trkpt lat="45.9292" lon="6.50536">
        <ele>1714.74</ele>
        <time>2009-03-04T12:40:21Z</time>
      </trkpt>
      <trkpt lat="45.92917" lon="6.50511">
        <ele>1716.564</ele>
        <time>2009-03-04T12:41:00Z</time>
      </trkpt>
      <trkpt lat="45.92901" lon="6.50497">
        <ele>1715.519</ele>
        <time>2009-03-04T12:41:33Z</time>
      </trkpt>
      <trkpt lat="45.92884" lon="6.50486">
        <ele>1712.578</ele>
        <time>2009-03-04T12:42:22Z</time>
      </trkpt>
      <trkpt lat="45.92866" lon="6.50487">
        <ele>1712.599</ele>
        <time>2009-03-04T12:42:30Z</time>
      </trkpt>
      <trkpt lat="45.92854" lon="6.50467">
        <ele>1706.086</ele>
        <time>2009-03-04T12:42:36Z</time>
      </trkpt>
      <trkpt lat="45.92834" lon="6.50452">
        <ele>1703.149</ele>
        <time>2009-03-04T12:42:41Z</time>
      </trkpt>
      <trkpt lat="45.92822" lon="6.5043">
        <ele>1701.599</ele>
        <time>2009-03-04T12:42:46Z</time>
      </trkpt>
      <trkpt lat="45.9281" lon="6.50411">
        <ele>1700.086</ele>
        <time>2009-03-04T12:42:50Z</time>
      </trkpt>
      <trkpt lat="45.92796" lon="6.50393">
        <ele>1698.769</ele>
        <time>2009-03-04T12:42:55Z</time>
      </trkpt>
      <trkpt lat="45.92782" lon="6.50374">
        <ele>1695.14</ele>
        <time>2009-03-04T12:43:04Z</time>
      </trkpt>
      <trkpt lat="45.92782" lon="6.50352">
        <ele>1684.894</ele>
        <time>2009-03-04T12:43:21Z</time>
      </trkpt>
      <trkpt lat="45.92781" lon="6.50329">
        <ele>1674.247</ele>
        <time>2009-03-04T12:43:33Z</time>
      </trkpt>
      <trkpt lat="45.92773" lon="6.50306">
        <ele>1670.17</ele>
        <time>2009-03-04T12:43:38Z</time>
      </trkpt>
      <trkpt lat="45.92765" lon="6.50282">
        <ele>1665.844</ele>
        <time>2009-03-04T12:43:44Z</time>
      </trkpt>
      <trkpt lat="45.92757" lon="6.50261">
        <ele>1657.984</ele>
        <time>2009-03-04T12:43:51Z</time>
      </trkpt>
      <trkpt lat="45.92747" lon="6.5024">
        <ele>1656.424</ele>
        <time>2009-03-04T12:43:55Z</time>
      </trkpt>
      <trkpt lat="45.92763" lon="6.50233">
        <ele>1646.107</ele>
        <time>2009-03-04T12:44:27Z</time>
      </trkpt>
      <trkpt lat="45.92763" lon="6.50205">
        <ele>1636.123</ele>
        <time>2009-03-04T12:44:43Z</time>
      </trkpt>
      <trkpt lat="45.92747" lon="6.50189">
        <ele>1632.108</ele>
        <time>2009-03-04T12:44:49Z</time>
      </trkpt>
      <trkpt lat="45.92735" lon="6.5017">
        <ele>1627.275</ele>
        <time>2009-03-04T12:44:55Z</time>
      </trkpt>
      <trkpt lat="45.92718" lon="6.50154">
        <ele>1623.512</ele>
        <time>2009-03-04T12:45:00Z</time>
      </trkpt>
      <trkpt lat="45.92702" lon="6.50141">
        <ele>1621.901</ele>
        <time>2009-03-04T12:45:07Z</time>
      </trkpt>
      <trkpt lat="45.92684" lon="6.50127">
        <ele>1621.245</ele>
        <time>2009-03-04T12:45:14Z</time>
      </trkpt>
      <trkpt lat="45.92672" lon="6.50105">
        <ele>1618.744</ele>
        <time>2009-03-04T12:45:19Z</time>
      </trkpt>
      <trkpt lat="45.92662" lon="6.50079">
        <ele>1615.956</ele>
        <time>2009-03-04T12:45:24Z</time>
      </trkpt>
      <trkpt lat="45.92653" lon="6.50049">
        <ele>1610.832</ele>
        <time>2009-03-04T12:45:29Z</time>
      </trkpt>
      <trkpt lat="45.92646" lon="6.50026">
        <ele>1608.977</ele>
        <time>2009-03-04T12:45:33Z</time>
      </trkpt>
      <trkpt lat="45.92639" lon="6.50002">
        <ele>1606.728</ele>
        <time>2009-03-04T12:45:40Z</time>
      </trkpt>
      <trkpt lat="45.92636" lon="6.49976">
        <ele>1602.736</ele>
        <time>2009-03-04T12:45:55Z</time>
      </trkpt>
      <trkpt lat="45.92631" lon="6.4995">
        <ele>1600.555</ele>
        <time>2009-03-04T12:45:59Z</time>
      </trkpt>
      <trkpt lat="45.92624" lon="6.49918">
        <ele>1598.028</ele>
        <time>2009-03-04T12:46:03Z</time>
      </trkpt>
      <trkpt lat="45.92615" lon="6.49891">
        <ele>1596.476</ele>
        <time>2009-03-04T12:46:07Z</time>
      </trkpt>
      <trkpt lat="45.92607" lon="6.49865">
        <ele>1595.223</ele>
        <time>2009-03-04T12:46:14Z</time>
      </trkpt>
      <trkpt lat="45.92619" lon="6.49848">
        <ele>1586.885</ele>
        <time>2009-03-04T12:46:30Z</time>
      </trkpt>
      <trkpt lat="45.92609" lon="6.49823">
        <ele>1585.246</ele>
        <time>2009-03-04T12:46:49Z</time>
      </trkpt>
      <trkpt lat="45.92602" lon="6.49799">
        <ele>1584.211</ele>
        <time>2009-03-04T12:46:56Z</time>
      </trkpt>
      <trkpt lat="45.92595" lon="6.49772">
        <ele>1581.462</ele>
        <time>2009-03-04T12:47:13Z</time>
      </trkpt>
      <trkpt lat="45.92594" lon="6.49747">
        <ele>1575.497</ele>
        <time>2009-03-04T12:47:28Z</time>
      </trkpt>
      <trkpt lat="45.92588" lon="6.49722">
        <ele>1575.09</ele>
        <time>2009-03-04T12:47:36Z</time>
      </trkpt>
      <trkpt lat="45.92589" lon="6.49695">
        <ele>1571.236</ele>
        <time>2009-03-04T12:47:43Z</time>
      </trkpt>
      <trkpt lat="45.92593" lon="6.49668">
        <ele>1567.978</ele>
        <time>2009-03-04T12:47:51Z</time>
      </trkpt>
      <trkpt lat="45.92601" lon="6.49644">
        <ele>1564.012</ele>
        <time>2009-03-04T12:47:58Z</time>
      </trkpt>
      <trkpt lat="45.92605" lon="6.49618">
        <ele>1555.935</ele>
        <time>2009-03-04T12:48:07Z</time>
      </trkpt>
      <trkpt lat="45.92612" lon="6.49593">
        <ele>1549.103</ele>
        <time>2009-03-04T12:48:17Z</time>
      </trkpt>
      <trkpt lat="45.92615" lon="6.49567">
        <ele>1544.503</ele>
        <time>2009-03-04T12:48:23Z</time>
      </trkpt>
      <trkpt lat="45.92624" lon="6.49543">
        <ele>1539.047</ele>
        <time>2009-03-04T12:48:30Z</time>
      </trkpt>
      <trkpt lat="45.92633" lon="6.49515">
        <ele>1535.825</ele>
        <time>2009-03-04T12:48:36Z</time>
      </trkpt>
      <trkpt lat="45.92642" lon="6.49493">
        <ele>1533.541</ele>
        <time>2009-03-04T12:48:43Z</time>
      </trkpt>
      <trkpt lat="45.92656" lon="6.49476">
        <ele>1532.412</ele>
        <time>2009-03-04T12:49:15Z</time>
      </trkpt>
      <trkpt lat="45.92672" lon="6.49459">
        <ele>1529.959</ele>
        <time>2009-03-04T12:49:20Z</time>
      </trkpt>
      <trkpt lat="45.92692" lon="6.49453">
        <ele>1530.028</ele>
        <time>2009-03-04T12:49:24Z</time>
      </trkpt>
      <trkpt lat="45.92711" lon="6.49454">
        <ele>1530.051</ele>
        <time>2009-03-04T12:49:59Z</time>
      </trkpt>
      <trkpt lat="45.92714" lon="6.49428">
        <ele>1532.301</ele>
        <time>2009-03-04T12:51:54Z</time>
      </trkpt>
      <trkpt lat="45.92713" lon="6.49402">
        <ele>1535.342</ele>
        <time>2009-03-04T12:52:04Z</time>
      </trkpt>
      <trkpt lat="45.92713" lon="6.49375">
        <ele>1533.557</ele>
        <time>2009-03-04T12:52:18Z</time>
      </trkpt>
      <trkpt lat="45.92711" lon="6.49348">
        <ele>1528.546</ele>
        <time>2009-03-04T12:52:21Z</time>
      </trkpt>
      <trkpt lat="45.92706" lon="6.49316">
        <ele>1527.569</ele>
        <time>2009-03-04T12:52:24Z</time>
      </trkpt>
      <trkpt lat="45.92694" lon="6.49293">
        <ele>1524.965</ele>
        <time>2009-03-04T12:52:27Z</time>
      </trkpt>
      <trkpt lat="45.92678" lon="6.49276">
        <ele>1524.125</ele>
        <time>2009-03-04T12:52:30Z</time>
      </trkpt>
      <trkpt lat="45.92661" lon="6.49264">
        <ele>1525.825</ele>
        <time>2009-03-04T12:52:34Z</time>
      </trkpt>
      <trkpt lat="45.92643" lon="6.49255">
        <ele>1529.435</ele>
        <time>2009-03-04T12:52:44Z</time>
      </trkpt>
      <trkpt lat="45.92628" lon="6.49239">
        <ele>1532.246</ele>
        <time>2009-03-04T12:53:09Z</time>
      </trkpt>
      <trkpt lat="45.92612" lon="6.49226">
        <ele>1532.181</ele>
        <time>2009-03-04T12:53:36Z</time>
      </trkpt>
      <trkpt lat="45.92594" lon="6.49224">
        <ele>1533.613</ele>
        <time>2009-03-04T12:54:09Z</time>
      </trkpt>
      <trkpt lat="45.92576" lon="6.49219">
        <ele>1533.672</ele>
        <time>2009-03-04T12:54:55Z</time>
      </trkpt>
      <trkpt lat="45.92558" lon="6.49216">
        <ele>1537.58</ele>
        <time>2009-03-04T12:55:22Z</time>
      </trkpt>
      <trkpt lat="45.9254" lon="6.49214">
        <ele>1544.775</ele>
        <time>2009-03-04T12:56:06Z</time>
      </trkpt>
      <trkpt lat="45.92524" lon="6.49202">
        <ele>1546.389</ele>
        <time>2009-03-04T12:56:16Z</time>
      </trkpt>
      <trkpt lat="45.92505" lon="6.49195">
        <ele>1546.962</ele>
        <time>2009-03-04T12:56:28Z</time>
      </trkpt>
      <trkpt lat="45.92488" lon="6.49185">
        <ele>1548.805</ele>
        <time>2009-03-04T12:56:50Z</time>
      </trkpt>
      <trkpt lat="45.92475" lon="6.49166">
        <ele>1550.209</ele>
        <time>2009-03-04T12:57:19Z</time>
      </trkpt>
      <trkpt lat="45.92463" lon="6.49146">
        <ele>1550.246</ele>
        <time>2009-03-04T13:00:13Z</time>
      </trkpt>
      <trkpt lat="45.9245" lon="6.49124">
        <ele>1547.957</ele>
        <time>2009-03-04T13:00:22Z</time>
      </trkpt>
      <trkpt lat="45.92433" lon="6.49108">
        <ele>1545.395</ele>
        <time>2009-03-04T13:00:26Z</time>
      </trkpt>
      <trkpt lat="45.92412" lon="6.49109">
        <ele>1542.407</ele>
        <time>2009-03-04T13:00:30Z</time>
      </trkpt>
      <trkpt lat="45.92388" lon="6.49112">
        <ele>1538.135</ele>
        <time>2009-03-04T13:00:34Z</time>
      </trkpt>
      <trkpt lat="45.92365" lon="6.49109">
        <ele>1533.349</ele>
        <time>2009-03-04T13:00:37Z</time>
      </trkpt>
      <trkpt lat="45.92346" lon="6.49088">
        <ele>1530.334</ele>
        <time>2009-03-04T13:00:40Z</time>
      </trkpt>
      <trkpt lat="45.92325" lon="6.49067">
        <ele>1527.471</ele>
        <time>2009-03-04T13:00:43Z</time>
      </trkpt>
      <trkpt lat="45.923" lon="6.49057">
        <ele>1523.563</ele>
        <time>2009-03-04T13:00:46Z</time>
      </trkpt>
      <trkpt lat="45.92277" lon="6.49036">
        <ele>1519.67</ele>
        <time>2009-03-04T13:00:49Z</time>
      </trkpt>
      <trkpt lat="45.92262" lon="6.49018">
        <ele>1516.636</ele>
        <time>2009-03-04T13:00:51Z</time>
      </trkpt>
      <trkpt lat="45.92249" lon="6.48999">
        <ele>1514.104</ele>
        <time>2009-03-04T13:00:53Z</time>
      </trkpt>
      <trkpt lat="45.92235" lon="6.48978">
        <ele>1511.36</ele>
        <time>2009-03-04T13:00:55Z</time>
      </trkpt>
      <trkpt lat="45.92223" lon="6.48957">
        <ele>1510.228</ele>
        <time>2009-03-04T13:00:57Z</time>
      </trkpt>
      <trkpt lat="45.92209" lon="6.48937">
        <ele>1507.057</ele>
        <time>2009-03-04T13:00:59Z</time>
      </trkpt>
      <trkpt lat="45.92195" lon="6.48918">
        <ele>1505.838</ele>
        <time>2009-03-04T13:01:01Z</time>
      </trkpt>
      <trkpt lat="45.92178" lon="6.4889">
        <ele>1504.47</ele>
        <time>2009-03-04T13:01:04Z</time>
      </trkpt>
      <trkpt lat="45.92169" lon="6.48861">
        <ele>1504.581</ele>
        <time>2009-03-04T13:01:07Z</time>
      </trkpt>
      <trkpt lat="45.92172" lon="6.48835">
        <ele>1507.578</ele>
        <time>2009-03-04T13:01:16Z</time>
      </trkpt>
      <trkpt lat="45.92177" lon="6.4881">
        <ele>1504.245</ele>
        <time>2009-03-04T13:01:45Z</time>
      </trkpt>
      <trkpt lat="45.92169" lon="6.48786">
        <ele>1505.886</ele>
        <time>2009-03-04T13:02:16Z</time>
      </trkpt>
      <trkpt lat="45.92167" lon="6.4876">
        <ele>1506.005</ele>
        <time>2009-03-04T13:02:30Z</time>
      </trkpt>
      <trkpt lat="45.92159" lon="6.48735">
        <ele>1506.565</ele>
        <time>2009-03-04T13:02:45Z</time>
      </trkpt>
      <trkpt lat="45.92151" lon="6.4871">
        <ele>1508.977</ele>
        <time>2009-03-04T13:02:59Z</time>
      </trkpt>
      <trkpt lat="45.9214" lon="6.48686">
        <ele>1513.526</ele>
        <time>2009-03-04T13:03:13Z</time>
      </trkpt>
      <trkpt lat="45.92129" lon="6.48659">
        <ele>1512.766</ele>
        <time>2009-03-04T13:03:18Z</time>
      </trkpt>
      <trkpt lat="45.92132" lon="6.4863">
        <ele>1510.437</ele>
        <time>2009-03-04T13:03:22Z</time>
      </trkpt>
      <trkpt lat="45.92142" lon="6.48608">
        <ele>1508.364</ele>
        <time>2009-03-04T13:03:27Z</time>
      </trkpt>
      <trkpt lat="45.92154" lon="6.48582">
        <ele>1505.27</ele>
        <time>2009-03-04T13:03:32Z</time>
      </trkpt>
      <trkpt lat="45.92165" lon="6.48558">
        <ele>1502.817</ele>
        <time>2009-03-04T13:03:36Z</time>
      </trkpt>
      <trkpt lat="45.92178" lon="6.48529">
        <ele>1499.709</ele>
        <time>2009-03-04T13:03:40Z</time>
      </trkpt>
      <trkpt lat="45.92188" lon="6.48505">
        <ele>1498.355</ele>
        <time>2009-03-04T13:03:43Z</time>
      </trkpt>
      <trkpt lat="45.92198" lon="6.48483">
        <ele>1494.421</ele>
        <time>2009-03-04T13:03:46Z</time>
      </trkpt>
      <trkpt lat="45.92213" lon="6.48465">
        <ele>1491.912</ele>
        <time>2009-03-04T13:03:49Z</time>
      </trkpt>
      <trkpt lat="45.92227" lon="6.48446">
        <ele>1492.521</ele>
        <time>2009-03-04T13:03:52Z</time>
      </trkpt>
      <trkpt lat="45.92243" lon="6.4843">
        <ele>1493.092</ele>
        <time>2009-03-04T13:03:56Z</time>
      </trkpt>
      <trkpt lat="45.9226" lon="6.4842">
        <ele>1491.959</ele>
        <time>2009-03-04T13:04:01Z</time>
      </trkpt>
      <trkpt lat="45.9228" lon="6.48408">
        <ele>1490.393</ele>
        <time>2009-03-04T13:04:07Z</time>
      </trkpt>
    </trkseg>
  </trk>
</gpx>